Flight Track Log - Related Links

Times and Time Zones

All times are in EDT time to prevent confusion due to time zone crossing. See the SWA262 flight status page for this flight to view local times or setup timezone preferences in your user account.

Time Position Orientation Groundspeed Altitude Reporting Facility
EDT Latitude Longitude Course Direction KTS MPH feet Rate Location/Type
Thu 06:21:22 PM 33.4333 -112.0500 248° West 182 209 2,200  Level Phoenix TRACON
Thu 06:22:10 PM 33.4167 -112.1000 253° West 225 259 3,200 1,541 Climbing Phoenix TRACON
Thu 06:23:11 PM 33.4000 -112.1667 168° South 266 306 5,000 2,182 Climbing Phoenix TRACON
Thu 06:24:11 PM 33.3333 -112.1500 83° East 274 315 7,600 1,806 Climbing Phoenix TRACON
Thu 06:26:17 PM 33.3536 -111.9497 72° East 305 351 10,600 1,484 Climbing Albuquerque Center
Thu 06:27:17 PM 33.3875 -111.8222 72° East 333 383 12,200 2,050 Climbing Albuquerque Center
Thu 06:28:17 PM 33.4214 -111.6972 74° East 366 421 14,700 2,100 Climbing Albuquerque Center
Thu 06:29:17 PM 33.4508 -111.5767 72° East 379 436 16,400 1,850 Climbing Albuquerque Center
Thu 06:30:17 PM 33.4844 -111.4489 77° East 384 442 18,400 1,750 Climbing Albuquerque Center
Thu 06:31:17 PM 33.5094 -111.3206 81° East 389 448 19,900 1,438 Climbing Albuquerque Center
Thu 06:32:18 PM 33.5267 -111.1819 83° East 399 459 21,300 1,500 Climbing Albuquerque Center
Thu 06:33:17 PM 33.5414 -111.0406 81° East 410 472 22,900 1,361 Climbing Albuquerque Center
Thu 06:34:17 PM 33.5603 -110.8994 71° East 416 479 24,000 1,150 Climbing Albuquerque Center
Thu 06:35:17 PM 33.5997 -110.7639 68° East 428 493 25,200 1,150 Climbing Albuquerque Center
Thu 06:36:17 PM 33.6361 -110.6558 69° East 428 493 26,300 1,050 Climbing Albuquerque Center
Thu 06:37:17 PM 33.6842 -110.5028 68° East 438 504 27,300 1,200 Climbing Albuquerque Center
Thu 06:38:17 PM 33.7294 -110.3647 68° East 438 504 28,700 1,150 Climbing Albuquerque Center
Thu 06:39:17 PM 33.7744 -110.2289 70° East 443 510 29,600 1,000 Climbing Albuquerque Center
Thu 06:40:17 PM 33.8150 -110.0931 69° East 443 510 30,700 1,050 Climbing Albuquerque Center
Thu 06:41:17 PM 33.8578 -109.9594 69° East 438 504 31,700 1,100 Climbing Albuquerque Center
Thu 06:42:17 PM 33.9003 -109.8256 69° East 427 491 32,900 650 Climbing Albuquerque Center
Thu 06:43:17 PM 33.9425 -109.6942 70° East 422 486 33,000 50 Climbing Albuquerque Center
Thu 06:44:17 PM 33.9847 -109.5575 69° East 427 491 33,000  Level Albuquerque Center
Thu 06:45:17 PM 34.0267 -109.4233 70° East 427 491 33,000  Level Albuquerque Center
Thu 06:46:17 PM 34.0667 -109.2889 68° East 427 491 33,000  Level Albuquerque Center
Thu 06:47:17 PM 34.1103 -109.1569 70° East 427 491 33,000  Level Albuquerque Center
Thu 06:48:17 PM 34.1497 -109.0250 69° East 427 491 33,000  Level Albuquerque Center
Thu 06:49:17 PM 34.1933 -108.8878 61° Northeast 427 491 33,000  Level Albuquerque Center
Thu 06:50:17 PM 34.2511 -108.7606 61° Northeast 422 486 33,000  Level Albuquerque Center
Thu 06:51:17 PM 34.3069 -108.6383 60° Northeast 422 486 33,000  Level Albuquerque Center
Thu 06:52:17 PM 34.3667 -108.5136 61° Northeast 422 486 33,000  Level Albuquerque Center
Thu 06:53:17 PM 34.4283 -108.3783 62° Northeast 416 479 33,000  Level Albuquerque Center
Thu 06:54:17 PM 34.4836 -108.2506 59° Northeast 416 479 33,000  Level Albuquerque Center
Thu 06:55:17 PM 34.5450 -108.1253 62° Northeast 416 479 33,000  Level Albuquerque Center
Thu 06:56:17 PM 34.6000 -107.9994 60° Northeast 416 479 33,000  Level Albuquerque Center
Thu 06:57:17 PM 34.6611 -107.8711 60° Northeast 416 479 33,000  Level Albuquerque Center
Thu 06:58:17 PM 34.7136 -107.7603 60° Northeast 416 479 33,000  Level Albuquerque Center
Thu 06:59:17 PM 34.7786 -107.6217 62° Northeast 416 479 33,000  Level Albuquerque Center
Thu 07:00:16 PM 34.8353 -107.4903 61° Northeast 416 479 33,000  Level Albuquerque Center
Thu 07:01:17 PM 34.8875 -107.3764 60° Northeast 422 486 33,000  Level Albuquerque Center
Thu 07:02:17 PM 34.9522 -107.2369 62° Northeast 422 486 33,000  Level Albuquerque Center
Thu 07:03:16 PM 35.0083 -107.1100 62° Northeast 417 480 33,000  Level Albuquerque Center
Thu 07:04:17 PM 35.0644 -106.9831 62° Northeast 417 480 33,000  Level Albuquerque Center
Thu 07:05:17 PM 35.1161 -106.8661 61° Northeast 417 480 33,000  Level Albuquerque Center
Thu 07:06:17 PM 35.1800 -106.7233 61° Northeast 423 487 33,000  Level Albuquerque Center
Thu 07:07:17 PM 35.2378 -106.5931 62° Northeast 428 493 33,000  Level Albuquerque Center
Thu 07:08:17 PM 35.2892 -106.4756 62° Northeast 440 506 33,000  Level Albuquerque Center
Thu 07:09:17 PM 35.3464 -106.3425 61° Northeast 440 506 33,000  Level Albuquerque Center
Thu 07:10:17 PM 35.4039 -106.2144 62° Northeast 434 499 33,000  Level Albuquerque Center
Thu 07:11:17 PM 35.4669 -106.0708 62° Northeast 436 502 33,000  Level Albuquerque Center
Thu 07:12:17 PM 35.5219 -105.9422 60° Northeast 428 493 33,000  Level Albuquerque Center
Thu 07:13:16 PM 35.5808 -105.8186 63° Northeast 434 499 33,000  Level Albuquerque Center
Thu 07:14:17 PM 35.6356 -105.6872 62° Northeast 439 505 33,000  Level Albuquerque Center
Thu 07:15:17 PM 35.6919 -105.5556 62° Northeast 439 505 33,000  Level Albuquerque Center
Thu 07:16:17 PM 35.7525 -105.4161 62° Northeast 431 496 33,000  Level Albuquerque Center
Thu 07:17:16 PM 35.8086 -105.2842 62° Northeast 436 502 33,000  Level Albuquerque Center
Thu 07:18:17 PM 35.8667 -105.1492 63° Northeast 436 502 33,000  Level Albuquerque Center
Thu 07:19:17 PM 35.9244 -105.0117 63° Northeast 441 507 33,000  Level Albuquerque Center
Thu 07:20:17 PM 35.9742 -104.8894 61° Northeast 441 507 33,000  Level Albuquerque Center
Thu 07:21:17 PM 36.0339 -104.7542 62° Northeast 441 507 33,000  Level Albuquerque Center
Thu 07:22:17 PM 36.0914 -104.6186 63° Northeast 441 507 33,000  Level Albuquerque Center
Thu 07:23:17 PM 36.1467 -104.4828 62° Northeast 441 507 33,000  Level Albuquerque Center
Thu 07:24:17 PM 36.2058 -104.3444 64° Northeast 441 507 33,000  Level Albuquerque Center
Thu 07:25:17 PM 36.2667 -104.1900 63° Northeast 441 507 33,000  Level Albuquerque Center
Thu 07:26:17 PM 36.3233 -104.0511 63° Northeast 447 514 33,000  Level Albuquerque Center
Thu 07:27:17 PM 36.3800 -103.9144 62° Northeast 447 514 33,000  Level Albuquerque Center
Thu 07:28:17 PM 36.4406 -103.7697 63° Northeast 457 526 33,000  Level Albuquerque Center
Thu 07:29:17 PM 36.4986 -103.6250 63° Northeast 457 526 33,000  Level Albuquerque Center
Thu 07:30:17 PM 36.5567 -103.4828 63° Northeast 457 526 33,000  Level Albuquerque Center
Thu 07:31:17 PM 36.6167 -103.3347 63° Northeast 465 535 33,000  Level Albuquerque Center
Thu 07:32:17 PM 36.6761 -103.1867 64° Northeast 473 544 33,000  Level Albuquerque Center
Thu 07:33:17 PM 36.7336 -103.0383 63° Northeast 478 550 33,000  Level Albuquerque Center
Thu 07:34:17 PM 36.7872 -102.9083 64° Northeast 478 550 33,000  Level Albuquerque Center
Thu 07:36:12 PM 36.9033 -102.6083 66° East 497 572 33,000  Level Kansas City Center
Thu 07:37:12 PM 36.9519 -102.4731 63° Northeast 479 551 33,000  Level Kansas City Center
Thu 07:38:12 PM 37.0169 -102.3133 65° Northeast 469 540 33,000  Level Kansas City Center
Thu 07:39:12 PM 37.0722 -102.1678 64° Northeast 469 540 33,000  Level Kansas City Center
Thu 07:40:12 PM 37.1297 -102.0225 64° Northeast 469 540 33,000  Level Kansas City Center
Thu 07:41:12 PM 37.1794 -101.8917 65° Northeast 469 540 33,000  Level Kansas City Center
Thu 07:42:12 PM 37.2394 -101.7306 63° Northeast 469 540 33,000  Level Kansas City Center
Thu 07:43:12 PM 37.2986 -101.5819 65° Northeast 464 534 33,000  Level Kansas City Center
Thu 07:44:12 PM 37.3531 -101.4356 64° Northeast 464 534 33,000  Level Kansas City Center
Thu 07:45:12 PM 37.4047 -101.2992 65° Northeast 472 543 33,000  Level Kansas City Center
Thu 07:46:12 PM 37.4664 -101.1319 66° East 472 543 33,000  Level Kansas City Center
Thu 07:47:12 PM 37.5206 -100.9794 65° Northeast 479 551 33,000  Level Kansas City Center
Thu 07:48:12 PM 37.5742 -100.8372 64° Northeast 485 558 33,000  Level Kansas City Center
Thu 07:49:12 PM 37.6394 -100.6644 65° Northeast 494 568 33,000  Level Kansas City Center
Thu 07:50:12 PM 37.6953 -100.5142 66° East 482 555 33,000  Level Kansas City Center
Thu 07:51:12 PM 37.7439 -100.3761 65° Northeast 475 547 33,000  Level Kansas City Center
Thu 07:52:12 PM 37.8061 -100.2075 65° Northeast 475 547 33,000  Level Kansas City Center
Thu 07:53:12 PM 37.8614 -100.0564 66° East 475 547 33,000  Level Kansas City Center
Thu 07:54:12 PM 37.9094 -99.9178 65° Northeast 475 547 33,000  Level Kansas City Center
Thu 07:55:12 PM 37.9642 -99.7664 66° East 475 547 33,000  Level Kansas City Center
Thu 07:56:12 PM 38.0236 -99.5964 64° Northeast 475 547 33,000  Level Kansas City Center
Thu 07:57:12 PM 38.0800 -99.4472 63° Northeast 475 547 33,000  Level Kansas City Center
Thu 07:58:12 PM 38.1406 -99.2931 69° East 475 547 33,000  Level Kansas City Center
Thu 07:59:12 PM 38.1861 -99.1425 66° East 475 547 33,000  Level Kansas City Center
Thu 08:00:12 PM 38.2400 -98.9872 65° Northeast 475 547 33,000  Level Kansas City Center
Thu 08:01:12 PM 38.2958 -98.8319 67° East 475 547 33,000  Level Kansas City Center
Thu 08:02:12 PM 38.3494 -98.6736 66° East 475 547 33,000  Level Kansas City Center
Thu 08:03:12 PM 38.4025 -98.5228 66° East 470 541 33,000  Level Kansas City Center
Thu 08:04:12 PM 38.4556 -98.3667 67° East 475 547 33,000  Level Kansas City Center
Thu 08:05:12 PM 38.5017 -98.2283 66° East 470 541 33,000  Level Kansas City Center
Thu 08:06:12 PM 38.5567 -98.0717 67° East 475 547 33,000  Level Kansas City Center
Thu 08:07:12 PM 38.6069 -97.9175 66° East 475 547 33,000  Level Kansas City Center
Thu 08:08:12 PM 38.6614 -97.7578 68° East 475 547 33,000  Level Kansas City Center
Thu 08:09:12 PM 38.7092 -97.6028 66° East 475 547 33,000  Level Kansas City Center
Thu 08:10:12 PM 38.7700 -97.4244 67° East 475 547 33,000  Level Kansas City Center
Thu 08:11:12 PM 38.8217 -97.2692 68° East 475 547 33,000  Level Kansas City Center
Thu 08:12:12 PM 38.8711 -97.1111 68° East 475 547 33,000  Level Kansas City Center
Thu 08:13:12 PM 38.9181 -96.9633 68° East 475 547 33,000  Level Kansas City Center
Thu 08:14:12 PM 38.9669 -96.8047 66° East 475 547 33,000  Level Kansas City Center
Thu 08:15:12 PM 39.0286 -96.6278 68° East 482 555 33,000  Level Kansas City Center
Thu 08:16:12 PM 39.0794 -96.4633 67° East 497 572 33,000 500 Level Kansas City Center
Thu 08:17:12 PM 39.1297 -96.3069 68° East 488 562 34,000 850 Climbing Kansas City Center
Thu 08:18:12 PM 39.1800 -96.1500 68° East 475 547 34,700 500 Climbing Kansas City Center
Thu 08:19:12 PM 39.2300 -95.9931 68° East 467 537 35,000 150 Climbing Kansas City Center
Thu 08:20:12 PM 39.2797 -95.8306 68° East 477 549 35,000  Level Kansas City Center
Thu 08:21:12 PM 39.3253 -95.6839 67° East 482 555 35,000  Level Kansas City Center
Thu 08:22:12 PM 39.3767 -95.5236 69° East 482 555 35,000  Level Kansas City Center
Thu 08:23:12 PM 39.4300 -95.3469 68° East 477 549 35,000  Level Kansas City Center
Thu 08:24:12 PM 39.4747 -95.2022 74° East 477 549 35,000  Level Kansas City Center
Thu 08:25:12 PM 39.5153 -95.0197 72° East 478 550 35,000  Level Kansas City Center
Thu 08:26:12 PM 39.5514 -94.8747 74° East 472 543 35,000  Level Kansas City Center
Thu 08:27:12 PM 39.5892 -94.7053 73° East 477 549 35,000  Level Kansas City Center
Thu 08:28:12 PM 39.6311 -94.5303 74° East 477 549 35,000  Level Kansas City Center
Thu 08:29:12 PM 39.6683 -94.3658 73° East 477 549 35,000  Level Kansas City Center
Thu 08:30:12 PM 39.7036 -94.2200 75° East 472 543 35,000  Level Kansas City Center
Thu 08:31:12 PM 39.7386 -94.0525 79° East 472 543 35,000  Level Kansas City Center
Thu 08:32:12 PM 39.7647 -93.8717 75° East 472 543 35,000  Level Kansas City Center
Thu 08:33:12 PM 39.7953 -93.7256 68° East 464 534 35,000  Level Kansas City Center
Thu 08:34:12 PM 39.8442 -93.5681 70° East 464 534 35,000  Level Kansas City Center
Thu 08:35:12 PM 39.8886 -93.4053 68° East 464 534 35,000  Level Kansas City Center
Thu 08:36:12 PM 39.9369 -93.2475 69° East 470 541 35,000  Level Kansas City Center
Thu 08:37:12 PM 39.9850 -93.0842 69° East 476 548 35,000  Level Kansas City Center
Thu 08:38:12 PM 40.0311 -92.9233 69° East 476 548 35,000  Level Kansas City Center
Thu 08:39:12 PM 40.0786 -92.7597 69° East 476 548 35,000  Level Kansas City Center
Thu 08:40:12 PM 40.1303 -92.5794 71° East 476 548 35,000  Level Kansas City Center
Thu 08:41:12 PM 40.1733 -92.4181 68° East 476 548 35,000  Level Kansas City Center
Thu 08:42:12 PM 40.2244 -92.2533 69° East 476 548 35,000  Level Kansas City Center
Thu 08:43:12 PM 40.2714 -92.0914 70° East 476 548 35,000  Level Kansas City Center
Thu 08:44:12 PM 40.3158 -91.9294 70° East 476 548 35,000  Level Kansas City Center
Thu 08:46:08 PM 40.4019 -91.6131 69° East 465 535 35,000  Level Chicago Center
Thu 08:47:08 PM 40.4489 -91.4508 70° East 470 541 35,000  Level Chicago Center
Thu 08:48:08 PM 40.4933 -91.2856 73° East 470 541 35,000  Level Chicago Center
Thu 08:49:08 PM 40.5317 -91.1200 74° East 470 541 35,000  Level Chicago Center
Thu 08:50:08 PM 40.5694 -90.9489 75° East 475 547 35,000  Level Chicago Center
Thu 08:51:08 PM 40.6031 -90.7803 75° East 475 547 35,000  Level Chicago Center
Thu 08:52:08 PM 40.6364 -90.6114 74° East 475 547 35,000  Level Chicago Center
Thu 08:53:08 PM 40.6714 -90.4450 75° East 475 547 35,000  Level Chicago Center
Thu 08:54:08 PM 40.7061 -90.2783 75° East 475 547 35,000  Level Chicago Center
Thu 08:55:08 PM 40.7364 -90.1308 77° East 469 540 35,000  Level Chicago Center
Thu 08:56:08 PM 40.7647 -89.9639 79° East 469 540 35,000  Level Chicago Center
Thu 08:57:08 PM 40.7883 -89.7997 81° East 464 534 35,000  Level Chicago Center
Thu 08:58:08 PM 40.8075 -89.6353 80° East 464 534 35,000  Level Chicago Center
Thu 08:59:08 PM 40.8308 -89.4569 82° East 474 545 35,000  Level Chicago Center
Thu 09:00:08 PM 40.8475 -89.2922 81° East 469 540 35,000  Level Chicago Center
Thu 09:01:08 PM 40.8661 -89.1303 77° East 455 524 35,000  Level Chicago Center
Thu 09:03:08 PM 40.9214 -88.8169 67° East 445 512 35,000  Level Chicago Center
Thu 09:04:08 PM 40.9767 -88.6431 68° East 444 511 35,000  Level Chicago Center
Thu 09:05:08 PM 41.0236 -88.4911 69° East 444 511 35,000  Level Chicago Center
Thu 09:06:08 PM 41.0681 -88.3364 69° East 444 511 35,000  Level Chicago Center
Thu 09:07:08 PM 41.1125 -88.1842 68° East 444 511 35,000  Level Chicago Center
Thu 09:08:08 PM 41.1589 -88.0289 69° East 444 511 35,000  Level Chicago Center
Thu 09:09:08 PM 41.2047 -87.8706 69° East 450 518 35,000  Level Chicago Center
Thu 09:10:08 PM 41.2506 -87.7150 68° East 450 518 35,000 -150 Level Chicago Center
Thu 09:11:08 PM 41.2964 -87.5617 68° East 450 518 34,700 -500 Descending Chicago Center
Thu 09:12:08 PM 41.3378 -87.4250 69° East 450 518 34,000 -650 Descending Chicago Center
Thu 09:13:08 PM 41.3811 -87.2717 70° East 444 511 33,400 -500 Descending Chicago Center
Thu 09:14:08 PM 41.4239 -87.1181 69° East 444 511 33,000 -200 Descending Chicago Center
Thu 09:15:08 PM 41.4689 -86.9639 70° East 434 499 33,000  Level Chicago Center
Thu 09:16:08 PM 41.5094 -86.8128 67° East 434 499 33,000 -300 Level Chicago Center
Thu 09:17:08 PM 41.5561 -86.6636 70° East 434 499 32,400 -750 Descending Chicago Center
Thu 09:18:08 PM 41.5981 -86.5064 71° East 434 499 31,500 -1,000 Descending Chicago Center
Thu 09:19:08 PM 41.6436 -86.3294 73° East 445 512 30,400 -900 Descending Chicago Center
Thu 09:20:08 PM 41.6772 -86.1833 82° East 450 518 29,700 -900 Descending Chicago Center
Thu 09:21:08 PM 41.6950 -86.0072 81° East 457 526 28,600 -1,050 Descending Chicago Center
Thu 09:22:08 PM 41.7150 -85.8336 83° East 468 539 27,600 -1,000 Descending Chicago Center
Thu 09:23:08 PM 41.7303 -85.6631 87° East 468 539 26,600 -596 Descending Chicago Center
Thu 09:24:59 PM 41.7414 -85.3619 94° East 439 505 25,900 -561 Descending Cleveland Center
Thu 09:25:59 PM 41.7333 -85.2028 92° East 435 501 25,000 -900 Descending Cleveland Center
Thu 09:26:59 PM 41.7294 -85.0411 94° East 435 501 24,100 -1,850 Descending Cleveland Center
Thu 09:27:59 PM 41.7208 -84.8847 98° East 423 487 21,300 -2,200 Descending Cleveland Center
Thu 09:28:59 PM 41.7036 -84.7303 99° East 417 480 19,700 -1,250 Descending Cleveland Center
Thu 09:29:59 PM 41.6858 -84.5819 100° East 387 445 18,800 -950 Descending Cleveland Center
Thu 09:30:59 PM 41.6675 -84.4444 66° East 367 422 17,800 -1,300 Descending Cleveland Center
Thu 09:31:59 PM 41.7094 -84.3189 57° Northeast 349 402 16,200 -1,755 Descending Cleveland Center
Thu 09:32:45 PM 41.7517 -84.2322 62° Northeast 369 425 14,700 -1,963 Descending Cleveland Center
Thu 09:33:46 PM 41.7972 -84.1153 59° Northeast 357 411 12,700 -1,328 Descending Cleveland Center
Thu 09:34:47 PM 41.8486 -84.0008 60° Northeast 316 364 12,000 -361 Descending Cleveland Center
Thu 09:35:59 PM 41.9000 -83.8808 56° Northeast 316 364 11,900 -45 Descending Cleveland Center
Thu 09:36:59 PM 41.9486 -83.7856 56° Northeast 311 358 11,900 50 Level Cleveland Center
Thu 09:37:59 PM 41.9972 -83.6875 61° Northeast 311 358 12,000 54 Climbing Cleveland Center
Thu 09:38:50 PM 42.0328 -83.5997 73° East 324 373 12,000 -432 Level Cleveland Center
Thu 09:39:50 PM 42.0589 -83.4833 73° East 319 367 11,200 -496 Descending Cleveland Center
Thu 09:40:51 PM 42.0844 -83.3728 76° East 309 356 11,000 -1,033 Descending Cleveland Center
Thu 09:41:52 PM 42.1058 -83.2589 90° East 303 349 9,100 -1,736 Descending Cleveland Center
Thu 09:42:52 PM 42.1064 -83.1469 85° East 299 344 7,500 -1,537 Descending Cleveland Center
Thu 09:43:53 PM 42.1128 -83.0408 19° North 286 329 6,000 -1,438 Descending Cleveland Center
Thu 09:44:53 PM 42.1781 -83.0097 307° West 264 304 4,600 -1,091 Descending Cleveland Center
Thu 09:45:54 PM 42.2142 -83.0756 278° West 226 260 3,800 -678 Descending Cleveland Center
Thu 09:46:48 PM 42.2208 -83.1397 268° West 192 221 3,300 -688 Descending FAA TRACON SMA TRACON (SMA)
Thu 09:47:30 PM 42.2200 -83.1778 269° West 166 191 2,700 -750 Descending FAA TRACON SMA TRACON (SMA)
Thu 09:48:08 PM 42.2194 -83.2136 269° West 142 163 2,300 -701 Descending FAA TRACON SMA TRACON (SMA)
Thu 09:48:47 PM 42.2189 -83.2478 269° West 136 157 1,800 -769 Descending FAA TRACON SMA TRACON (SMA)

Login

Don't have an account? Register now (free) for customized features, flight alerts, and more!